sensor_id;sensor_type;location;lat;lon;timestamp;pressure;altitude;pressure_sealevel;temperature;humidity
55470;BME280;41334;47.872;16.384;2023-12-07T00:02:25;98990.84;;;0.99;79.97
55470;BME280;41334;47.872;16.384;2023-12-07T00:07:28;98995.22;;;1.00;79.07
55470;BME280;41334;47.872;16.384;2023-12-07T00:12:30;99008.94;;;1.10;78.39
55470;BME280;41334;47.872;16.384;2023-12-07T00:17:32;98995.03;;;1.12;77.95
55470;BME280;41334;47.872;16.384;2023-12-07T00:22:34;98993.91;;;1.08;77.55
55470;BME280;41334;47.872;16.384;2023-12-07T00:27:38;99003.16;;;1.07;77.76
55470;BME280;41334;47.872;16.384;2023-12-07T00:32:41;98989.75;;;1.00;77.74
55470;BME280;41334;47.872;16.384;2023-12-07T00:37:45;98996.06;;;1.06;77.17
55470;BME280;41334;47.872;16.384;2023-12-07T00:42:47;98999.31;;;1.03;77.13
55470;BME280;41334;47.872;16.384;2023-12-07T00:47:49;99007.75;;;1.01;76.88
55470;BME280;41334;47.872;16.384;2023-12-07T00:52:51;99017.53;;;0.97;77.05
55470;BME280;41334;47.872;16.384;2023-12-07T00:57:53;99014.22;;;0.90;77.36
55470;BME280;41334;47.872;16.384;2023-12-07T01:02:55;99015.00;;;0.85;77.23
55470;BME280;41334;47.872;16.384;2023-12-07T01:07:58;99023.78;;;0.93;77.04
55470;BME280;41334;47.872;16.384;2023-12-07T01:13:00;99027.84;;;0.90;76.90
55470;BME280;41334;47.872;16.384;2023-12-07T01:18:11;99033.59;;;0.88;77.04
55470;BME280;41334;47.872;16.384;2023-12-07T01:23:14;99031.91;;;0.87;77.29
55470;BME280;41334;47.872;16.384;2023-12-07T01:28:17;99038.81;;;0.95;76.83
55470;BME280;41334;47.872;16.384;2023-12-07T01:33:20;99040.19;;;0.98;77.18
55470;BME280;41334;47.872;16.384;2023-12-07T01:38:23;99054.69;;;1.03;76.18
55470;BME280;41334;47.872;16.384;2023-12-07T01:43:25;99033.19;;;1.07;76.34
55470;BME280;41334;47.872;16.384;2023-12-07T01:48:28;99046.56;;;1.08;76.16
55470;BME280;41334;47.872;16.384;2023-12-07T01:53:31;99048.22;;;1.09;75.85
55470;BME280;41334;47.872;16.384;2023-12-07T01:58:34;99057.56;;;1.19;75.44
55470;BME280;41334;47.872;16.384;2023-12-07T02:03:39;99060.50;;;1.12;76.04
55470;BME280;41334;47.872;16.384;2023-12-07T02:08:43;99057.28;;;1.15;76.01
55470;BME280;41334;47.872;16.384;2023-12-07T02:13:45;99056.22;;;1.21;75.52
55470;BME280;41334;47.872;16.384;2023-12-07T02:24:38;99061.69;;;1.21;75.41
55470;BME280;41334;47.872;16.384;2023-12-07T02:29:48;99053.75;;;1.20;75.68
55470;BME280;41334;47.872;16.384;2023-12-07T02:34:50;99058.41;;;1.24;75.54
55470;BME280;41334;47.872;16.384;2023-12-07T02:39:52;99064.97;;;1.23;75.71
55470;BME280;41334;47.872;16.384;2023-12-07T02:44:55;99065.78;;;1.24;75.28
55470;BME280;41334;47.872;16.384;2023-12-07T02:49:57;99056.97;;;1.11;75.71
55470;BME280;41334;47.872;16.384;2023-12-07T02:54:59;99056.19;;;1.16;75.42
55470;BME280;41334;47.872;16.384;2023-12-07T03:00:03;99060.03;;;1.20;75.01
55470;BME280;41334;47.872;16.384;2023-12-07T03:05:09;99064.16;;;1.23;75.00
55470;BME280;41334;47.872;16.384;2023-12-07T03:10:11;99063.81;;;1.19;75.32
55470;BME280;41334;47.872;16.384;2023-12-07T03:15:13;99061.06;;;1.14;75.36
55470;BME280;41334;47.872;16.384;2023-12-07T03:20:16;99067.59;;;1.13;75.50
55470;BME280;41334;47.872;16.384;2023-12-07T03:25:18;99072.81;;;1.14;75.00
55470;BME280;41334;47.872;16.384;2023-12-07T03:30:20;99080.19;;;1.19;75.27
55470;BME280;41334;47.872;16.384;2023-12-07T03:35:22;99082.09;;;1.19;75.22
55470;BME280;41334;47.872;16.384;2023-12-07T03:40:24;99098.25;;;1.20;75.33
55470;BME280;41334;47.872;16.384;2023-12-07T03:45:26;99103.94;;;1.19;74.84
55470;BME280;41334;47.872;16.384;2023-12-07T03:50:30;99105.91;;;1.23;75.05
55470;BME280;41334;47.872;16.384;2023-12-07T03:55:32;99108.91;;;1.22;74.94
55470;BME280;41334;47.872;16.384;2023-12-07T04:00:34;99119.44;;;1.13;75.23
55470;BME280;41334;47.872;16.384;2023-12-07T04:05:39;99128.25;;;1.20;75.43
55470;BME280;41334;47.872;16.384;2023-12-07T04:10:42;99124.72;;;1.20;75.32
55470;BME280;41334;47.872;16.384;2023-12-07T04:15:44;99133.13;;;1.18;75.42
55470;BME280;41334;47.872;16.384;2023-12-07T04:20:47;99136.41;;;1.15;75.71
55470;BME280;41334;47.872;16.384;2023-12-07T04:25:50;99156.56;;;1.14;75.78
55470;BME280;41334;47.872;16.384;2023-12-07T04:30:52;99169.59;;;1.07;75.91
55470;BME280;41334;47.872;16.384;2023-12-07T04:35:55;99173.56;;;1.21;75.53
55470;BME280;41334;47.872;16.384;2023-12-07T04:40:56;99172.69;;;1.15;75.47
55470;BME280;41334;47.872;16.384;2023-12-07T04:45:58;99170.72;;;1.11;75.66
55470;BME280;41334;47.872;16.384;2023-12-07T04:51:01;99171.59;;;1.17;75.59
55470;BME280;41334;47.872;16.384;2023-12-07T04:56:03;99179.03;;;1.21;75.33
55470;BME280;41334;47.872;16.384;2023-12-07T05:01:05;99185.50;;;1.15;75.52
55470;BME280;41334;47.872;16.384;2023-12-07T05:06:07;99179.47;;;1.13;75.29
55470;BME280;41334;47.872;16.384;2023-12-07T05:11:09;99198.88;;;1.17;74.85
55470;BME280;41334;47.872;16.384;2023-12-07T05:16:11;99196.38;;;1.10;75.38
55470;BME280;41334;47.872;16.384;2023-12-07T05:21:13;99199.97;;;1.15;74.42
55470;BME280;41334;47.872;16.384;2023-12-07T05:26:15;99202.94;;;1.14;74.75
55470;BME280;41334;47.872;16.384;2023-12-07T05:31:17;99202.06;;;1.08;74.54
55470;BME280;41334;47.872;16.384;2023-12-07T05:36:19;99209.94;;;1.05;75.05
55470;BME280;41334;47.872;16.384;2023-12-07T05:41:21;99226.38;;;1.10;75.03
55470;BME280;41334;47.872;16.384;2023-12-07T05:46:23;99223.66;;;1.10;74.21
55470;BME280;41334;47.872;16.384;2023-12-07T05:51:26;99229.94;;;1.10;73.73
55470;BME280;41334;47.872;16.384;2023-12-07T05:56:28;99233.97;;;1.08;73.77
55470;BME280;41334;47.872;16.384;2023-12-07T06:01:30;99240.59;;;1.12;72.98
55470;BME280;41334;47.872;16.384;2023-12-07T06:06:32;99244.88;;;1.08;73.68
55470;BME280;41334;47.872;16.384;2023-12-07T06:11:35;99257.16;;;1.05;73.77
55470;BME280;41334;47.872;16.384;2023-12-07T06:16:37;99267.47;;;1.03;73.95
55470;BME280;41334;47.872;16.384;2023-12-07T06:21:39;99270.53;;;1.07;74.08
55470;BME280;41334;47.872;16.384;2023-12-07T06:26:41;99260.69;;;1.06;74.22
55470;BME280;41334;47.872;16.384;2023-12-07T06:31:44;99274.28;;;1.01;74.11
55470;BME280;41334;47.872;16.384;2023-12-07T06:36:47;99280.06;;;1.04;74.30
55470;BME280;41334;47.872;16.384;2023-12-07T06:41:52;99273.38;;;0.95;74.99
55470;BME280;41334;47.872;16.384;2023-12-07T06:46:53;99289.81;;;1.00;74.76
55470;BME280;41334;47.872;16.384;2023-12-07T06:51:55;99299.91;;;1.00;74.73
55470;BME280;41334;47.872;16.384;2023-12-07T06:56:57;99292.81;;;0.99;74.89
55470;BME280;41334;47.872;16.384;2023-12-07T07:02:00;99304.84;;;1.03;74.81
55470;BME280;41334;47.872;16.384;2023-12-07T07:07:02;99311.78;;;1.10;74.23
55470;BME280;41334;47.872;16.384;2023-12-07T07:12:04;99316.47;;;1.15;74.06
55470;BME280;41334;47.872;16.384;2023-12-07T07:17:06;99323.66;;;1.21;73.50
55470;BME280;41334;47.872;16.384;2023-12-07T07:22:09;99325.69;;;1.31;73.07
55470;BME280;41334;47.872;16.384;2023-12-07T07:27:11;99322.16;;;1.35;72.76
55470;BME280;41334;47.872;16.384;2023-12-07T07:32:15;99332.66;;;1.44;72.59
55470;BME280;41334;47.872;16.384;2023-12-07T07:37:17;99332.22;;;1.52;72.45
55470;BME280;41334;47.872;16.384;2023-12-07T07:42:20;99334.59;;;1.70;72.21
55470;BME280;41334;47.872;16.384;2023-12-07T07:47:22;99335.72;;;1.74;71.46
55470;BME280;41334;47.872;16.384;2023-12-07T07:52:26;99338.56;;;1.84;71.66
55470;BME280;41334;47.872;16.384;2023-12-07T07:57:28;99340.22;;;1.85;71.21
55470;BME280;41334;47.872;16.384;2023-12-07T08:02:30;99344.03;;;1.84;71.33
55470;BME280;41334;47.872;16.384;2023-12-07T08:07:32;99342.34;;;1.83;69.92
55470;BME280;41334;47.872;16.384;2023-12-07T08:12:34;99348.03;;;2.04;70.09
55470;BME280;41334;47.872;16.384;2023-12-07T08:17:38;99343.72;;;2.08;69.48
55470;BME280;41334;47.872;16.384;2023-12-07T08:22:43;99350.41;;;2.22;68.71
55470;BME280;41334;47.872;16.384;2023-12-07T08:27:45;99356.25;;;2.36;68.36
55470;BME280;41334;47.872;16.384;2023-12-07T08:32:48;99355.50;;;2.45;67.52
55470;BME280;41334;47.872;16.384;2023-12-07T08:37:50;99355.25;;;2.47;67.53
55470;BME280;41334;47.872;16.384;2023-12-07T08:42:54;99353.75;;;2.66;67.00
55470;BME280;41334;47.872;16.384;2023-12-07T08:47:56;99360.94;;;2.78;65.98
55470;BME280;41334;47.872;16.384;2023-12-07T08:52:58;99367.56;;;2.82;66.10
55470;BME280;41334;47.872;16.384;2023-12-07T08:58:06;99368.44;;;2.92;65.68
55470;BME280;41334;47.872;16.384;2023-12-07T09:03:08;99375.03;;;2.96;64.97
55470;BME280;41334;47.872;16.384;2023-12-07T09:08:10;99372.28;;;3.44;64.40
55470;BME280;41334;47.872;16.384;2023-12-07T09:13:12;99368.28;;;3.67;64.14
55470;BME280;41334;47.872;16.384;2023-12-07T09:18:14;99378.47;;;3.82;62.41
55470;BME280;41334;47.872;16.384;2023-12-07T09:23:16;99370.91;;;4.35;62.31
55470;BME280;41334;47.872;16.384;2023-12-07T09:28:18;99371.19;;;4.53;61.50
55470;BME280;41334;47.872;16.384;2023-12-07T09:33:20;99366.25;;;4.25;61.98
55470;BME280;41334;47.872;16.384;2023-12-07T09:38:22;99370.31;;;3.97;62.15
55470;BME280;41334;47.872;16.384;2023-12-07T09:43:24;99364.00;;;4.07;62.41
55470;BME280;41334;47.872;16.384;2023-12-07T09:48:27;99364.53;;;3.93;62.12
55470;BME280;41334;47.872;16.384;2023-12-07T09:53:33;99351.13;;;3.92;61.60
55470;BME280;41334;47.872;16.384;2023-12-07T09:58:35;99348.66;;;4.06;61.92
55470;BME280;41334;47.872;16.384;2023-12-07T10:03:42;99355.50;;;3.98;62.46
55470;BME280;41334;47.872;16.384;2023-12-07T10:08:46;99336.50;;;3.71;62.20
55470;BME280;41334;47.872;16.384;2023-12-07T10:13:50;99341.69;;;3.67;61.29
55470;BME280;41334;47.872;16.384;2023-12-07T10:18:53;99330.78;;;3.88;62.73
55470;BME280;41334;47.872;16.384;2023-12-07T10:23:56;99337.63;;;3.85;63.28
55470;BME280;41334;47.872;16.384;2023-12-07T10:28:58;99339.78;;;3.68;63.69
55470;BME280;41334;47.872;16.384;2023-12-07T10:34:01;99347.09;;;3.47;64.34
55470;BME280;41334;47.872;16.384;2023-12-07T10:39:04;99348.72;;;3.43;63.89
55470;BME280;41334;47.872;16.384;2023-12-07T10:44:16;99353.38;;;3.47;64.07
55470;BME280;41334;47.872;16.384;2023-12-07T10:49:21;99356.19;;;3.63;64.97
55470;BME280;41334;47.872;16.384;2023-12-07T10:55:10;99362.22;;;3.55;65.10
55470;BME280;41334;47.872;16.384;2023-12-07T11:00:15;99346.44;;;3.24;65.30
55470;BME280;41334;47.872;16.384;2023-12-07T11:05:20;99359.88;;;3.31;65.71
55470;BME280;41334;47.872;16.384;2023-12-07T11:10:27;99350.88;;;3.36;66.03
55470;BME280;41334;47.872;16.384;2023-12-07T11:15:32;99340.47;;;3.28;64.88
55470;BME280;41334;47.872;16.384;2023-12-07T11:20:45;99348.88;;;3.21;65.43
55470;BME280;41334;47.872;16.384;2023-12-07T11:25:52;99336.16;;;2.94;65.07
55470;BME280;41334;47.872;16.384;2023-12-07T11:30:55;99337.28;;;2.98;65.88
55470;BME280;41334;47.872;16.384;2023-12-07T11:41:06;99335.66;;;3.03;65.33
55470;BME280;41334;47.872;16.384;2023-12-07T11:46:09;99341.91;;;2.93;66.03
55470;BME280;41334;47.872;16.384;2023-12-07T11:51:11;99342.69;;;2.88;66.48
55470;BME280;41334;47.872;16.384;2023-12-07T11:56:13;99349.50;;;2.81;65.13
55470;BME280;41334;47.872;16.384;2023-12-07T12:01:18;99347.28;;;2.78;66.13
55470;BME280;41334;47.872;16.384;2023-12-07T12:06:20;99344.81;;;2.76;66.42
55470;BME280;41334;47.872;16.384;2023-12-07T12:11:22;99341.50;;;2.69;66.60
55470;BME280;41334;47.872;16.384;2023-12-07T12:16:24;99354.03;;;2.65;66.80
55470;BME280;41334;47.872;16.384;2023-12-07T12:21:26;99346.66;;;2.65;67.29
55470;BME280;41334;47.872;16.384;2023-12-07T12:26:34;99346.34;;;2.62;67.19
55470;BME280;41334;47.872;16.384;2023-12-07T12:31:36;99355.31;;;2.57;67.23
55470;BME280;41334;47.872;16.384;2023-12-07T12:36:38;99347.75;;;2.64;66.81
55470;BME280;41334;47.872;16.384;2023-12-07T12:41:40;99349.38;;;2.65;66.66
55470;BME280;41334;47.872;16.384;2023-12-07T12:46:42;99358.13;;;2.67;66.39
55470;BME280;41334;47.872;16.384;2023-12-07T12:51:44;99350.19;;;2.66;65.66
55470;BME280;41334;47.872;16.384;2023-12-07T12:56:46;99352.72;;;2.72;65.07
55470;BME280;41334;47.872;16.384;2023-12-07T13:01:48;99355.16;;;2.69;65.91
55470;BME280;41334;47.872;16.384;2023-12-07T13:06:51;99361.97;;;2.66;66.61
55470;BME280;41334;47.872;16.384;2023-12-07T13:11:53;99364.59;;;2.51;66.16
55470;BME280;41334;47.872;16.384;2023-12-07T13:16:55;99364.59;;;2.51;66.73
55470;BME280;41334;47.872;16.384;2023-12-07T13:21:57;99364.00;;;2.44;66.89
55470;BME280;41334;47.872;16.384;2023-12-07T13:26:59;99378.38;;;2.34;66.71
55470;BME280;41334;47.872;16.384;2023-12-07T13:32:04;99381.91;;;2.30;66.41
55470;BME280;41334;47.872;16.384;2023-12-07T13:37:06;99377.19;;;2.25;67.13
55470;BME280;41334;47.872;16.384;2023-12-07T13:42:09;99377.97;;;2.20;68.29
55470;BME280;41334;47.872;16.384;2023-12-07T13:47:25;99389.06;;;2.09;68.22
55470;BME280;41334;47.872;16.384;2023-12-07T13:52:32;99392.53;;;1.99;69.18
55470;BME280;41334;47.872;16.384;2023-12-07T13:57:33;99393.50;;;1.88;69.91
55470;BME280;41334;47.872;16.384;2023-12-07T14:02:35;99397.97;;;1.72;70.15
55470;BME280;41334;47.872;16.384;2023-12-07T14:07:37;99408.13;;;1.55;70.86
55470;BME280;41334;47.872;16.384;2023-12-07T14:12:39;99417.09;;;1.50;70.57
55470;BME280;41334;47.872;16.384;2023-12-07T14:17:41;99422.66;;;1.38;70.99
55470;BME280;41334;47.872;16.384;2023-12-07T14:22:57;99409.22;;;1.32;71.50
55470;BME280;41334;47.872;16.384;2023-12-07T14:28:06;99414.59;;;1.27;71.94
55470;BME280;41334;47.872;16.384;2023-12-07T14:33:08;99428.28;;;1.10;72.48
55470;BME280;41334;47.872;16.384;2023-12-07T14:38:10;99436.06;;;1.01;72.42
55470;BME280;41334;47.872;16.384;2023-12-07T14:43:15;99441.88;;;0.88;72.35
55470;BME280;41334;47.872;16.384;2023-12-07T14:48:17;99438.72;;;0.79;72.96
55470;BME280;41334;47.872;16.384;2023-12-07T14:53:19;99436.31;;;0.66;73.76
55470;BME280;41334;47.872;16.384;2023-12-07T14:58:22;99454.66;;;0.54;74.49
55470;BME280;41334;47.872;16.384;2023-12-07T15:03:24;99463.72;;;0.43;74.34
55470;BME280;41334;47.872;16.384;2023-12-07T15:08:26;99458.69;;;0.34;74.87
55470;BME280;41334;47.872;16.384;2023-12-07T15:13:28;99459.78;;;0.22;75.31
55470;BME280;41334;47.872;16.384;2023-12-07T15:18:30;99458.25;;;0.26;75.16
55470;BME280;41334;47.872;16.384;2023-12-07T15:23:36;99450.69;;;0.16;75.66
55470;BME280;41334;47.872;16.384;2023-12-07T15:28:39;99448.47;;;0.13;75.49
55470;BME280;41334;47.872;16.384;2023-12-07T15:33:41;99460.34;;;0.07;75.71
55470;BME280;41334;47.872;16.384;2023-12-07T15:38:43;99445.78;;;0.01;75.98
55470;BME280;41334;47.872;16.384;2023-12-07T15:43:45;99454.50;;;0.15;75.23
55470;BME280;41334;47.872;16.384;2023-12-07T15:48:47;99452.31;;;0.00;76.01
55470;BME280;41334;47.872;16.384;2023-12-07T15:53:49;99448.28;;;0.03;76.55
55470;BME280;41334;47.872;16.384;2023-12-07T15:58:51;99457.97;;;0.10;75.93
55470;BME280;41334;47.872;16.384;2023-12-07T16:03:55;99455.13;;;0.05;75.93
55470;BME280;41334;47.872;16.384;2023-12-07T16:08:57;99459.28;;;0.08;76.52
55470;BME280;41334;47.872;16.384;2023-12-07T16:13:59;99457.97;;;0.10;76.70
55470;BME280;41334;47.872;16.384;2023-12-07T16:19:01;99461.53;;;0.28;76.39
55470;BME280;41334;47.872;16.384;2023-12-07T16:24:03;99460.66;;;0.39;75.86
55470;BME280;41334;47.872;16.384;2023-12-07T16:29:06;99459.28;;;0.53;75.35
55470;BME280;41334;47.872;16.384;2023-12-07T16:34:08;99455.00;;;0.57;75.21
55470;BME280;41334;47.872;16.384;2023-12-07T16:39:12;99470.63;;;0.62;75.29
55470;BME280;41334;47.872;16.384;2023-12-07T16:44:15;99471.69;;;0.61;75.36
55470;BME280;41334;47.872;16.384;2023-12-07T16:49:17;99471.44;;;0.62;75.36
55470;BME280;41334;47.872;16.384;2023-12-07T16:54:21;99463.25;;;0.62;75.59
55470;BME280;41334;47.872;16.384;2023-12-07T16:59:23;99469.84;;;0.50;76.09
55470;BME280;41334;47.872;16.384;2023-12-07T17:04:26;99471.34;;;0.41;76.43
55470;BME280;41334;47.872;16.384;2023-12-07T17:09:28;99474.06;;;0.41;76.43
55470;BME280;41334;47.872;16.384;2023-12-07T17:14:31;99470.97;;;0.37;76.51
55470;BME280;41334;47.872;16.384;2023-12-07T17:19:33;99471.88;;;0.26;76.55
55470;BME280;41334;47.872;16.384;2023-12-07T17:24:45;99485.66;;;0.07;77.54
55470;BME280;41334;47.872;16.384;2023-12-07T17:29:47;99472.81;;;-0.09;77.36
55470;BME280;41334;47.872;16.384;2023-12-07T17:34:50;99480.09;;;-0.26;78.06
55470;BME280;41334;47.872;16.384;2023-12-07T17:39:52;99480.03;;;-0.43;78.48
55470;BME280;41334;47.872;16.384;2023-12-07T17:44:58;99476.03;;;-0.64;79.07
55470;BME280;41334;47.872;16.384;2023-12-07T17:50:00;99473.31;;;-0.76;79.57
55470;BME280;41334;47.872;16.384;2023-12-07T17:55:04;99472.50;;;-0.88;79.86
55470;BME280;41334;47.872;16.384;2023-12-07T18:00:06;99479.94;;;-0.95;80.81
55470;BME280;41334;47.872;16.384;2023-12-07T18:05:09;99472.59;;;-1.06;80.80
55470;BME280;41334;47.872;16.384;2023-12-07T18:10:12;99473.91;;;-1.09;81.28
55470;BME280;41334;47.872;16.384;2023-12-07T18:15:15;99474.13;;;-1.22;81.17
55470;BME280;41334;47.872;16.384;2023-12-07T18:20:19;99480.34;;;-1.45;81.76
55470;BME280;41334;47.872;16.384;2023-12-07T18:25:21;99472.19;;;-1.57;82.04
55470;BME280;41334;47.872;16.384;2023-12-07T18:30:23;99477.56;;;-1.68;82.32
55470;BME280;41334;47.872;16.384;2023-12-07T18:35:25;99483.31;;;-1.77;82.83
55470;BME280;41334;47.872;16.384;2023-12-07T18:40:27;99475.81;;;-1.93;82.76
55470;BME280;41334;47.872;16.384;2023-12-07T18:45:30;99476.75;;;-1.99;83.04
55470;BME280;41334;47.872;16.384;2023-12-07T18:50:32;99481.28;;;-2.11;83.38
55470;BME280;41334;47.872;16.384;2023-12-07T18:55:34;99480.69;;;-2.13;83.34
55470;BME280;41334;47.872;16.384;2023-12-07T19:00:36;99484.09;;;-2.18;83.76
55470;BME280;41334;47.872;16.384;2023-12-07T19:05:38;99480.94;;;-2.15;84.31
55470;BME280;41334;47.872;16.384;2023-12-07T19:10:43;99489.28;;;-2.16;84.39
55470;BME280;41334;47.872;16.384;2023-12-07T19:15:46;99501.38;;;-2.31;83.83
55470;BME280;41334;47.872;16.384;2023-12-07T19:20:48;99503.47;;;-2.33;84.35
55470;BME280;41334;47.872;16.384;2023-12-07T19:25:50;99507.09;;;-2.39;84.18
55470;BME280;41334;47.872;16.384;2023-12-07T19:30:52;99509.06;;;-2.46;84.93
55470;BME280;41334;47.872;16.384;2023-12-07T19:35:54;99511.03;;;-2.53;84.60
55470;BME280;41334;47.872;16.384;2023-12-07T19:40:56;99518.84;;;-2.63;84.71
55470;BME280;41334;47.872;16.384;2023-12-07T19:45:58;99519.94;;;-2.71;85.15
55470;BME280;41334;47.872;16.384;2023-12-07T19:51:00;99518.78;;;-2.82;84.99
55470;BME280;41334;47.872;16.384;2023-12-07T19:56:02;99517.47;;;-2.72;85.28
55470;BME280;41334;47.872;16.384;2023-12-07T20:01:04;99512.03;;;-2.72;85.50
55470;BME280;41334;47.872;16.384;2023-12-07T20:06:08;99502.38;;;-2.87;85.76
55470;BME280;41334;47.872;16.384;2023-12-07T20:11:17;99516.16;;;-2.88;86.22
55470;BME280;41334;47.872;16.384;2023-12-07T20:16:20;99511.81;;;-2.71;86.47
55470;BME280;41334;47.872;16.384;2023-12-07T20:21:22;99497.56;;;-2.85;85.97
55470;BME280;41334;47.872;16.384;2023-12-07T20:26:24;99512.22;;;-2.92;85.92
55470;BME280;41334;47.872;16.384;2023-12-07T20:31:26;99499.84;;;-3.07;85.91
55470;BME280;41334;47.872;16.384;2023-12-07T20:36:28;99492.16;;;-3.10;86.26
55470;BME280;41334;47.872;16.384;2023-12-07T20:41:30;99488.50;;;-2.97;86.30
55470;BME280;41334;47.872;16.384;2023-12-07T20:46:33;99480.16;;;-2.95;85.82
55470;BME280;41334;47.872;16.384;2023-12-07T20:51:35;99484.53;;;-2.94;85.96
55470;BME280;41334;47.872;16.384;2023-12-07T20:56:37;99484.53;;;-2.94;85.71
55470;BME280;41334;47.872;16.384;2023-12-07T21:01:44;99472.31;;;-3.03;85.63
55470;BME280;41334;47.872;16.384;2023-12-07T21:06:46;99477.56;;;-3.09;85.78
55470;BME280;41334;47.872;16.384;2023-12-07T21:11:48;99473.75;;;-3.26;85.33
55470;BME280;41334;47.872;16.384;2023-12-07T21:16:52;99478.72;;;-3.23;86.19
55470;BME280;41334;47.872;16.384;2023-12-07T21:21:54;99477.22;;;-3.19;85.73
55470;BME280;41334;47.872;16.384;2023-12-07T21:26:56;99466.22;;;-3.24;85.43
55470;BME280;41334;47.872;16.384;2023-12-07T21:31:58;99459.00;;;-3.30;85.57
55470;BME280;41334;47.872;16.384;2023-12-07T21:37:00;99456.13;;;-3.35;85.69
55470;BME280;41334;47.872;16.384;2023-12-07T21:42:02;99446.16;;;-3.41;85.36
55470;BME280;41334;47.872;16.384;2023-12-07T21:47:04;99455.44;;;-3.55;85.53
55470;BME280;41334;47.872;16.384;2023-12-07T21:52:07;99453.78;;;-3.56;85.81
55470;BME280;41334;47.872;16.384;2023-12-07T21:57:09;99447.13;;;-3.54;85.82
55470;BME280;41334;47.872;16.384;2023-12-07T22:02:11;99441.06;;;-3.56;85.73
55470;BME280;41334;47.872;16.384;2023-12-07T22:07:13;99438.81;;;-3.59;85.53
55470;BME280;41334;47.872;16.384;2023-12-07T22:12:15;99444.72;;;-3.69;84.83
55470;BME280;41334;47.872;16.384;2023-12-07T22:17:17;99433.97;;;-3.82;84.77
55470;BME280;41334;47.872;16.384;2023-12-07T22:22:19;99439.03;;;-3.92;85.05
55470;BME280;41334;47.872;16.384;2023-12-07T22:27:21;99429.53;;;-4.01;85.20
55470;BME280;41334;47.872;16.384;2023-12-07T22:32:24;99436.22;;;-4.04;85.42
55470;BME280;41334;47.872;16.384;2023-12-07T22:37:26;99428.09;;;-4.04;85.91
55470;BME280;41334;47.872;16.384;2023-12-07T22:42:28;99422.06;;;-4.06;85.78
55470;BME280;41334;47.872;16.384;2023-12-07T22:47:30;99428.72;;;-4.08;86.01
55470;BME280;41334;47.872;16.384;2023-12-07T22:52:33;99417.72;;;-4.14;86.21
55470;BME280;41334;47.872;16.384;2023-12-07T22:57:35;99414.00;;;-4.13;86.49
55470;BME280;41334;47.872;16.384;2023-12-07T23:02:37;99412.13;;;-4.12;86.48
55470;BME280;41334;47.872;16.384;2023-12-07T23:07:39;99412.78;;;-4.17;86.02
55470;BME280;41334;47.872;16.384;2023-12-07T23:12:41;99409.44;;;-4.12;86.63
55470;BME280;41334;47.872;16.384;2023-12-07T23:17:44;99398.31;;;-4.04;85.91
55470;BME280;41334;47.872;16.384;2023-12-07T23:22:46;99393.25;;;-3.94;85.22
55470;BME280;41334;47.872;16.384;2023-12-07T23:27:49;99383.06;;;-3.92;84.98
55470;BME280;41334;47.872;16.384;2023-12-07T23:32:51;99392.66;;;-3.96;84.59
55470;BME280;41334;47.872;16.384;2023-12-07T23:37:53;99397.84;;;-3.94;84.21
55470;BME280;41334;47.872;16.384;2023-12-07T23:42:55;99378.13;;;-4.01;84.07
55470;BME280;41334;47.872;16.384;2023-12-07T23:47:57;99368.44;;;-4.16;83.84
55470;BME280;41334;47.872;16.384;2023-12-07T23:52:59;99361.69;;;-4.31;83.94
55470;BME280;41334;47.872;16.384;2023-12-07T23:58:01;99358.38;;;-4.40;84.12
